Terminal Aerodrome Forecast
Issued by NWS Jackson, MS

Home | Current Version | Previous Version | Text Only | Print | Product List | Glossary On
Versions: 1 2 3 4 5 6 7 8 9 10 11
131
FTUS44 KJAN 261124
TAFHBG
TAF
KHBG 261124Z 2612/2712 18005KT P6SM BKN025
     FM261600 18016G25KT P6SM SCT250
     FM270400 17023G30KT P6SM OVC025
     FM270900 20022G30KT 4SM TSRA BR OVC025CB
     FM271100 29009KT P6SM OVC007=

USA.gov is the U.S. government's official web portal to all federal, state and local government web resources and services.